Winnipeg James Armstrong Richardson International Airport
CYWG : now visible

Airfield :











YOU CAN JOIN US ON...

 
LOGIN :

Register | Disclaimer

   EN    FR    IT 

 









Legend :    VFR   Marginal VFR   IFR   Intensive IFR   Very Intensive IFR
Visi :
Ceiling :
>= 8 km
>= 3000ft
5 to 8 km
1000 to 3000 ft
1500m to 5 km
500 to 1000 ft
800 to 1500m
200 to 500 ft
< 800m
< 200 ft
Symbols :   Thunderstorms  Fog  Heavy snow  Heavy precipitations  Wind > 20 kt






- Airport Elevation : 783 ft
- IATA code : YWG


CYWG - Winnipeg James Armstrong Richardson International

CURRENT METAR :
  • 130500Z 15011KT 15SM BKN048 M14/M20 A3003 RMK SC7 SLP195

EXPIRED METARs :
  • 130400Z 14009KT 15SM OVC048 M13/M19 A3005 RMK SC8 SLP200
  • 130308Z 13010KT 15SM OVC048 M13/M19 A3006 RMK SC8 SLP205

TAF TAF CYWG
Valid from the 13 at 06:00 until the 14 at 06:00 UTC


130540Z 1306/1406 13010KT P6SM SCT012 OVC050
TEMPO 1306/1310 5SM -SN BKN012 OVC040
FM131000 10008KT 6SM -SN OVC030
TEMPO 1310/1317 11/2SM -SN VV015
FM131700 03008KT P6SM -SN BKN030 OVC050
TEMPO 1317/1320 5SM -SN OVC020
FM132000 34015KT P6SM -SN FEW020 BKN040
FM140300 34012KT P6SM SCT040 RMK NXT FCST BY 131200Z



MET'MAP, your aeronautical weather chart ! - Copyright ORBIFLY December 2007 - Disclaimer

ORBIFLY MET'MAP TEAM :

Programming & Development : Alexandra Zaïnal
Concept & original design : Baudouin d'Aumeries
Assistance for programming : Marc-Olivier Méhu
Technical & hardware support : Manuel Goepfert

Contact : metmap@orbifly.com




SOURCES & CREDITS :

   NOAA       Earth
Advisory